Metar z pełnej godziny Komunikat METAR ze strony awiacja.imgw.pl Metar G00 EPKT METAR EPKT 241900Z VRB01KT CAVOK 13/10 Q1013 =